createdAt,value
2023-02-24T00:02:50.115Z,41.83
2023-02-24T00:07:54.358Z,36.85
2023-02-24T00:12:59.238Z,34.38
2023-02-24T00:23:11.500Z,36.40
2023-02-24T00:28:15.658Z,32.27
2023-02-24T00:33:23.194Z,36.83
2023-02-24T00:38:31.780Z,39.08
2023-02-24T00:43:37.978Z,34.30
2023-02-24T00:48:46.072Z,34.58
2023-02-24T00:53:51.561Z,37.33
2023-02-24T00:58:57.496Z,35.58
2023-02-24T01:04:11.470Z,34.53
2023-02-24T01:09:18.965Z,36.27
2023-02-24T01:14:27.213Z,33.72
2023-02-24T01:19:35.583Z,29.65
2023-02-24T01:24:42.554Z,30.23
2023-02-24T01:29:47.453Z,39.67
2023-02-24T01:34:54.850Z,35.08
2023-02-24T01:40:04.780Z,30.02
2023-02-24T01:45:29.722Z,30.90
2023-02-24T01:55:49.189Z,35.63
2023-02-24T02:00:54.353Z,38.10
2023-02-24T02:11:11.355Z,35.10
2023-02-24T02:16:46.346Z,37.80
2023-02-24T02:22:08.433Z,32.97
2023-02-24T02:27:41.241Z,33.13
2023-02-24T02:33:36.120Z,28.25
2023-02-24T02:38:54.112Z,33.13
2023-02-24T02:44:12.111Z,33.13
2023-02-24T02:49:24.076Z,28.23
2023-02-24T02:54:36.713Z,32.55
2023-02-24T02:59:50.023Z,31.50
2023-02-24T03:04:58.251Z,29.75
2023-02-24T03:10:11.428Z,32.45
2023-02-24T03:15:21.065Z,39.50
2023-02-24T03:20:32.721Z,32.80
2023-02-24T03:25:46.840Z,34.40
2023-02-24T03:31:03.729Z,37.40
2023-02-24T03:36:08.798Z,34.50
2023-02-24T03:41:17.206Z,34.70
2023-02-24T03:46:22.183Z,35.15
2023-02-24T03:51:26.634Z,35.63
2023-02-24T03:56:50.563Z,29.50
2023-02-24T04:02:03.770Z,35.13
2023-02-24T04:07:24.058Z,35.53
2023-02-24T04:12:38.281Z,38.28
2023-02-24T04:17:51.033Z,35.95
2023-02-24T04:23:03.062Z,30.85
2023-02-24T04:28:09.217Z,33.20
2023-02-24T04:33:16.697Z,32.35
2023-02-24T04:43:29.595Z,30.42
2023-02-24T04:48:33.975Z,29.48
2023-02-24T04:53:38.151Z,36.30
2023-02-24T04:58:46.384Z,37.50
2023-02-24T05:03:50.749Z,35.63
2023-02-24T05:08:54.986Z,38.95
2023-02-24T05:14:00.684Z,39.85
2023-02-24T05:19:22.880Z,35.92
2023-02-24T05:24:29.911Z,39.55
2023-02-24T05:29:36.896Z,37.45
2023-02-24T05:34:42.748Z,41.40
2023-02-24T05:39:47.145Z,34.53
2023-02-24T05:44:53.685Z,42.20
2023-02-24T05:49:59.258Z,29.80
2023-02-24T05:55:06.667Z,29.35
2023-02-24T06:00:16.331Z,35.35
2023-02-24T06:05:31.092Z,29.38
2023-02-24T06:10:35.949Z,35.70
2023-02-24T06:20:51.401Z,31.10
2023-02-24T06:25:57.828Z,33.95
2023-02-24T06:31:06.979Z,36.97
2023-02-24T06:36:11.494Z,33.28
2023-02-24T06:41:15.627Z,34.38
2023-02-24T06:46:21.349Z,35.03
2023-02-24T06:51:30.375Z,39.92
2023-02-24T06:56:38.821Z,34.70
2023-02-24T07:01:47.200Z,32.58
2023-02-24T07:06:55.835Z,32.72
2023-02-24T07:12:02.880Z,37.33
2023-02-24T07:17:08.695Z,37.20
2023-02-24T07:22:17.073Z,35.13
2023-02-24T07:27:23.297Z,36.13
2023-02-24T07:32:30.640Z,38.50
2023-02-24T07:37:35.253Z,35.22
2023-02-24T07:42:39.815Z,39.38
2023-02-24T07:47:45.606Z,40.33
2023-02-24T07:52:50.047Z,39.00
2023-02-24T07:57:54.852Z,44.60
2023-02-24T08:03:00.818Z,46.53
2023-02-24T08:08:05.142Z,40.80
2023-02-24T08:13:12.078Z,42.58
2023-02-24T08:18:20.093Z,46.17
2023-02-24T08:23:24.517Z,39.10
2023-02-24T08:28:28.644Z,40.53
2023-02-24T08:33:37.300Z,38.07
2023-02-24T08:38:42.362Z,34.22
2023-02-24T08:43:48.035Z,38.38
2023-02-24T08:48:56.544Z,38.25
2023-02-24T08:54:11.428Z,34.63
2023-02-24T09:04:46.005Z,38.33
2023-02-24T09:09:50.920Z,35.25
2023-02-24T09:20:44.319Z,26.48
2023-02-24T09:25:54.349Z,31.00
2023-02-24T09:31:04.862Z,29.85
2023-02-24T09:36:13.843Z,27.77
2023-02-24T09:41:33.599Z,25.73
2023-02-24T09:46:54.254Z,27.55
2023-02-24T09:52:08.974Z,30.35
2023-02-24T09:57:20.052Z,34.10
2023-02-24T10:02:45.157Z,34.60
2023-02-24T10:13:13.357Z,26.52
2023-02-24T10:18:29.037Z,29.67
2023-02-24T10:23:56.828Z,26.52
2023-02-24T10:29:22.568Z,26.92
2023-02-24T10:34:32.024Z,26.90
2023-02-24T10:39:42.503Z,24.88
2023-02-24T10:45:01.510Z,29.35
2023-02-24T10:50:20.910Z,26.65
2023-02-24T10:55:52.318Z,24.30
2023-02-24T11:01:13.660Z,23.50
2023-02-24T11:06:47.238Z,23.30
2023-02-24T11:12:10.483Z,19.20
2023-02-24T11:17:27.158Z,22.23
2023-02-24T11:22:37.322Z,25.83
2023-02-24T11:27:47.388Z,21.40
2023-02-24T11:33:18.339Z,22.20
2023-02-24T11:38:37.279Z,21.25
2023-02-24T11:43:47.209Z,17.70
2023-02-24T11:48:57.692Z,17.00
2023-02-24T11:54:05.218Z,20.83
2023-02-24T11:59:19.342Z,22.50
2023-02-24T12:04:31.310Z,18.88
2023-02-24T12:09:44.207Z,17.05
2023-02-24T12:14:54.547Z,14.50
2023-02-24T12:20:06.566Z,18.33
2023-02-24T12:25:15.114Z,15.55
2023-02-24T12:30:49.001Z,16.38
2023-02-24T12:36:04.093Z,17.75
2023-02-24T12:41:26.650Z,17.70
2023-02-24T12:46:36.339Z,21.98
2023-02-24T12:51:52.068Z,21.85
2023-02-24T12:57:07.233Z,15.60
2023-02-24T13:07:52.045Z,13.18
2023-02-24T13:13:10.616Z,16.17
2023-02-24T13:18:26.472Z,15.82
2023-02-24T13:23:31.725Z,14.15
2023-02-24T13:28:38.616Z,14.27
2023-02-24T13:33:46.163Z,15.13
2023-02-24T13:38:52.733Z,14.82
2023-02-24T13:44:00.282Z,14.77
2023-02-24T13:49:37.763Z,17.88
2023-02-24T13:55:22.784Z,17.85
2023-02-24T14:00:37.874Z,19.10
2023-02-24T14:05:44.544Z,24.20
2023-02-24T14:10:55.165Z,22.85
2023-02-24T14:16:02.402Z,15.48
2023-02-24T14:21:18.497Z,17.50
2023-02-24T14:26:23.362Z,12.93
2023-02-24T14:31:28.879Z,13.88
2023-02-24T14:36:40.212Z,13.35
2023-02-24T14:41:45.657Z,14.18
2023-02-24T14:46:52.327Z,18.65
2023-02-24T14:52:05.547Z,15.63
2023-02-24T14:57:16.065Z,17.80
2023-02-24T15:02:25.949Z,17.35
2023-02-24T15:07:35.226Z,17.55
2023-02-24T15:12:48.054Z,18.63
2023-02-24T15:17:58.923Z,18.40
2023-02-24T15:23:05.403Z,20.50
2023-02-24T15:28:25.931Z,21.00
2023-02-24T15:33:37.393Z,17.27
2023-02-24T15:38:44.464Z,21.20
2023-02-24T15:43:53.268Z,19.23
2023-02-24T15:49:01.763Z,21.30
2023-02-24T15:54:13.629Z,24.02
2023-02-24T15:59:21.372Z,24.95
2023-02-24T16:04:27.711Z,23.60
2023-02-24T16:09:38.066Z,24.80
2023-02-24T16:14:44.018Z,23.67
2023-02-24T16:19:48.199Z,24.58
2023-02-24T16:24:54.142Z,23.55
2023-02-24T16:29:59.374Z,23.80
2023-02-24T16:35:04.114Z,24.05
2023-02-24T16:40:25.220Z,27.98
2023-02-24T16:45:32.172Z,33.28
2023-02-24T16:50:41.419Z,36.42
2023-02-24T16:55:48.708Z,43.25
2023-02-24T17:00:59.041Z,40.70
2023-02-24T17:06:03.372Z,44.08
2023-02-24T17:11:13.751Z,50.78
2023-02-24T17:16:18.813Z,58.10
2023-02-24T17:21:23.253Z,47.53
2023-02-24T17:26:29.340Z,51.13
2023-02-24T17:31:35.063Z,53.45
2023-02-24T17:36:39.449Z,50.03
2023-02-24T17:41:45.425Z,52.85
2023-02-24T17:46:49.706Z,51.42
2023-02-24T17:51:54.027Z,45.28
2023-02-24T17:56:59.830Z,48.63
2023-02-24T18:02:04.612Z,51.45
2023-02-24T18:12:14.730Z,65.07
2023-02-24T18:17:19.984Z,54.17
2023-02-24T18:22:25.601Z,57.10
2023-02-24T18:27:32.799Z,60.42
2023-02-24T18:32:44.564Z,59.25
2023-02-24T18:37:53.297Z,55.40
2023-02-24T18:42:59.014Z,58.72
2023-02-24T18:48:05.233Z,61.83
2023-02-24T18:53:09.378Z,82.38
2023-02-24T18:58:15.261Z,82.03
2023-02-24T19:03:19.547Z,82.70
2023-02-24T19:08:23.815Z,83.97
2023-02-24T19:13:29.500Z,76.57
2023-02-24T19:18:34.555Z,63.22
2023-02-24T19:23:39.859Z,62.92
2023-02-24T19:28:46.314Z,56.45
2023-02-24T19:33:53.880Z,63.22
2023-02-24T19:38:58.413Z,59.28
2023-02-24T19:44:04.487Z,55.78
2023-02-24T19:49:08.827Z,55.45
2023-02-24T19:54:14.899Z,61.70
2023-02-24T19:59:20.613Z,56.60
2023-02-24T20:04:25.649Z,62.70
2023-02-24T20:09:29.947Z,59.33
2023-02-24T20:14:35.766Z,59.60
2023-02-24T20:19:40.833Z,63.60
2023-02-24T20:24:45.167Z,60.83
2023-02-24T20:29:53.467Z,58.42
2023-02-24T20:34:58.268Z,64.63
2023-02-24T20:45:12.360Z,87.83
2023-02-24T20:50:16.968Z,86.22
2023-02-24T20:55:22.637Z,92.90
2023-02-24T21:00:28.642Z,99.85
2023-02-24T21:05:32.920Z,92.32
2023-02-24T21:10:37.108Z,77.97
2023-02-24T21:15:50.145Z,76.97
2023-02-24T21:20:55.719Z,71.63
2023-02-24T21:26:00.635Z,58.95
2023-02-24T21:31:12.413Z,55.50
2023-02-24T21:36:16.813Z,50.28
2023-02-24T21:41:21.974Z,54.55
2023-02-24T21:46:28.555Z,48.55
2023-02-24T21:51:33.518Z,30.58
2023-02-24T21:56:37.848Z,33.17
2023-02-24T22:01:46.017Z,30.40
2023-02-24T22:06:50.946Z,32.08
2023-02-24T22:11:55.595Z,28.30
2023-02-24T22:17:01.130Z,28.25
2023-02-24T22:22:05.999Z,38.00
2023-02-24T22:27:10.230Z,28.67
2023-02-24T22:32:16.451Z,33.05
2023-02-24T22:37:20.888Z,32.53
2023-02-24T22:42:25.923Z,31.15
2023-02-24T22:47:32.281Z,24.65
2023-02-24T22:52:36.849Z,22.23
2023-02-24T22:57:41.185Z,20.73
2023-02-24T23:02:47.697Z,21.10
2023-02-24T23:07:52.361Z,21.33
2023-02-24T23:12:57.026Z,22.83
2023-02-24T23:18:03.024Z,21.85
2023-02-24T23:23:08.365Z,25.23
2023-02-24T23:28:12.560Z,20.90
2023-02-24T23:33:18.564Z,16.98
2023-02-24T23:38:22.874Z,18.05
2023-02-24T23:43:27.369Z,18.42
2023-02-24T23:48:33.821Z,20.00
2023-02-24T23:53:39.442Z,18.88
2023-02-24T23:58:44.215Z,19.25
